createdAt,value
2018-09-28T00:01:46.993Z,2.40
2018-09-28T00:04:15.654Z,2.30
2018-09-28T00:06:44.311Z,3.07
2018-09-28T00:09:12.968Z,2.80
2018-09-28T00:11:41.694Z,3.10
2018-09-28T00:14:10.496Z,3.07
2018-09-28T00:16:39.145Z,3.20
2018-09-28T00:19:07.813Z,2.47
2018-09-28T00:21:36.466Z,2.10
2018-09-28T00:24:05.137Z,1.60
2018-09-28T00:26:33.790Z,2.00
2018-09-28T00:29:02.517Z,1.80
2018-09-28T00:31:31.169Z,1.90
2018-09-28T00:33:59.838Z,2.30
2018-09-28T00:36:28.491Z,2.20
2018-09-28T00:38:57.225Z,2.83
2018-09-28T00:41:25.877Z,2.60
2018-09-28T00:43:54.530Z,2.83
2018-09-28T00:46:23.252Z,4.27
2018-09-28T00:48:51.957Z,4.83
2018-09-28T00:51:20.602Z,5.30
2018-09-28T00:53:49.270Z,5.90
2018-09-28T00:56:17.904Z,5.60
2018-09-28T00:58:46.566Z,5.80
2018-09-28T01:01:15.217Z,6.27
2018-09-28T01:03:43.868Z,6.93
2018-09-28T01:06:12.522Z,6.93
2018-09-28T01:08:41.182Z,7.50
2018-09-28T01:11:09.834Z,7.40
2018-09-28T01:13:38.494Z,7.07
2018-09-28T01:16:07.151Z,7.60
2018-09-28T01:18:35.805Z,7.67
2018-09-28T01:21:04.468Z,8.40
2018-09-28T01:23:33.137Z,8.73
2018-09-28T01:26:01.858Z,8.93
2018-09-28T01:28:30.492Z,9.33
2018-09-28T01:30:59.150Z,9.40
2018-09-28T01:33:27.810Z,9.13
2018-09-28T01:35:56.477Z,10.37
2018-09-28T01:38:25.158Z,9.70
2018-09-28T01:40:53.812Z,10.43
2018-09-28T01:43:22.516Z,11.13
2018-09-28T01:45:51.207Z,10.67
2018-09-28T01:48:19.853Z,11.70
2018-09-28T01:50:48.522Z,10.97
2018-09-28T01:53:17.254Z,11.67
2018-09-28T01:55:45.917Z,11.90
2018-09-28T01:58:14.597Z,11.87
2018-09-28T02:00:43.329Z,12.23
2018-09-28T02:03:12.027Z,13.27
2018-09-28T02:05:40.641Z,11.93
2018-09-28T02:08:09.303Z,13.63
2018-09-28T02:10:37.963Z,13.43
2018-09-28T02:13:06.604Z,14.07
2018-09-28T02:15:35.262Z,14.63
2018-09-28T02:18:03.913Z,14.77
2018-09-28T02:20:32.567Z,15.20
2018-09-28T02:23:01.225Z,15.23
2018-09-28T02:25:29.885Z,15.33
2018-09-28T02:27:58.538Z,14.33
2018-09-28T02:30:27.214Z,13.67
2018-09-28T02:32:55.865Z,14.17
2018-09-28T02:35:24.527Z,14.30
2018-09-28T02:37:53.732Z,14.83
2018-09-28T02:40:22.401Z,14.93
2018-09-28T02:42:51.063Z,14.67
2018-09-28T02:45:19.725Z,15.07
2018-09-28T02:47:48.374Z,15.00
2018-09-28T02:50:17.040Z,14.57
2018-09-28T02:52:45.706Z,14.27
2018-09-28T02:55:14.386Z,14.60
2018-09-28T02:57:43.038Z,14.70
2018-09-28T03:00:11.697Z,14.73
2018-09-28T03:02:40.367Z,15.10
2018-09-28T03:05:09.026Z,14.57
2018-09-28T03:07:37.687Z,13.57
2018-09-28T03:10:06.359Z,13.80
2018-09-28T03:12:35.018Z,13.93
2018-09-28T03:15:03.719Z,13.07
2018-09-28T03:17:32.378Z,13.47
2018-09-28T03:20:01.043Z,13.07
2018-09-28T03:22:29.698Z,14.03
2018-09-28T03:24:58.372Z,13.80
2018-09-28T03:27:27.035Z,14.17
2018-09-28T03:29:55.782Z,13.90
2018-09-28T03:32:24.443Z,14.73
2018-09-28T03:34:53.230Z,13.77
2018-09-28T03:37:21.894Z,14.73
2018-09-28T03:39:51.227Z,14.20
2018-09-28T03:42:19.898Z,13.80
2018-09-28T03:44:48.575Z,13.37
2018-09-28T03:47:17.277Z,14.03
2018-09-28T03:49:45.943Z,13.53
2018-09-28T03:52:14.619Z,13.80
2018-09-28T03:54:43.281Z,14.23
2018-09-28T03:57:11.950Z,14.27
2018-09-28T03:59:40.635Z,14.07
2018-09-28T04:02:09.294Z,15.03
2018-09-28T04:04:37.938Z,15.80
2018-09-28T04:07:06.612Z,14.47
2018-09-28T04:09:35.267Z,15.23
2018-09-28T04:12:03.931Z,15.53
2018-09-28T04:14:32.614Z,15.70
2018-09-28T04:17:01.283Z,16.20
2018-09-28T04:19:29.980Z,17.33
2018-09-28T04:22:00.895Z,18.10
2018-09-28T04:24:30.618Z,17.33
2018-09-28T04:26:59.309Z,15.63
2018-09-28T04:29:27.965Z,16.57
2018-09-28T04:31:56.646Z,16.40
2018-09-28T04:34:25.310Z,17.13
2018-09-28T04:36:53.989Z,17.00
2018-09-28T04:39:22.674Z,16.63
2018-09-28T04:41:51.369Z,16.33
2018-09-28T04:44:19.997Z,17.30
2018-09-28T04:46:48.649Z,17.37
2018-09-28T04:49:17.318Z,17.27
2018-09-28T04:51:45.972Z,18.30
2018-09-28T04:54:14.631Z,17.73
2018-09-28T04:56:43.295Z,18.03
2018-09-28T04:59:12.048Z,20.27
2018-09-28T05:01:40.709Z,19.57
2018-09-28T05:04:09.366Z,18.77
2018-09-28T05:06:38.092Z,19.00
2018-09-28T05:09:09.138Z,18.83
2018-09-28T05:11:37.828Z,18.83
2018-09-28T05:14:06.494Z,18.50
2018-09-28T05:16:35.182Z,18.67
2018-09-28T05:19:03.829Z,18.93
2018-09-28T05:21:32.737Z,18.83
2018-09-28T05:24:01.404Z,20.60
2018-09-28T05:26:30.209Z,20.90
2018-09-28T05:28:59.013Z,21.47
2018-09-28T05:31:27.786Z,21.07
2018-09-28T05:33:56.386Z,22.10
2018-09-28T05:36:25.071Z,22.73
2018-09-28T05:38:53.755Z,24.13
2018-09-28T05:41:22.452Z,24.13
2018-09-28T05:43:51.166Z,26.07
2018-09-28T05:46:19.841Z,25.37
2018-09-28T05:48:48.478Z,27.40
2018-09-28T05:51:17.280Z,27.17
2018-09-28T05:53:45.913Z,27.07
2018-09-28T05:56:14.573Z,26.60
2018-09-28T05:58:48.653Z,26.07
2018-09-28T06:01:22.735Z,27.87
2018-09-28T06:03:56.938Z,28.47
2018-09-28T06:06:25.611Z,29.80
2018-09-28T06:08:54.286Z,29.63
2018-09-28T06:11:22.950Z,31.27
2018-09-28T06:13:51.719Z,30.07
2018-09-28T06:16:20.410Z,31.43
2018-09-28T06:18:49.115Z,32.07
2018-09-28T06:21:17.757Z,31.30
2018-09-28T06:23:46.457Z,31.00
2018-09-28T06:26:15.171Z,32.43
2018-09-28T06:28:43.834Z,31.87
2018-09-28T06:31:12.523Z,32.43
2018-09-28T06:33:41.178Z,31.63
2018-09-28T06:36:09.930Z,31.67
2018-09-28T06:38:38.549Z,28.70
2018-09-28T06:41:07.214Z,28.90
2018-09-28T06:43:35.871Z,24.87
2018-09-28T06:46:04.544Z,24.93
2018-09-28T06:48:33.213Z,27.63
2018-09-28T06:51:01.896Z,26.37
2018-09-28T06:53:30.554Z,26.73
2018-09-28T06:55:59.266Z,26.90
2018-09-28T06:58:27.950Z,27.80
2018-09-28T07:00:56.625Z,29.73
2018-09-28T07:03:25.318Z,31.37
2018-09-28T07:05:54.048Z,34.27
2018-09-28T07:08:22.695Z,35.07
2018-09-28T07:10:51.362Z,37.47
2018-09-28T07:13:20.086Z,38.13
2018-09-28T07:15:48.730Z,39.10
2018-09-28T07:18:17.416Z,36.67
2018-09-28T07:20:46.058Z,38.93
2018-09-28T07:23:14.718Z,40.53
2018-09-28T07:25:43.490Z,38.17
2018-09-28T07:28:12.159Z,37.17
2018-09-28T07:30:40.819Z,39.20
2018-09-28T07:33:09.644Z,39.03
2018-09-28T07:35:38.314Z,36.53
2018-09-28T07:38:06.984Z,35.23
2018-09-28T07:40:35.649Z,35.07
2018-09-28T07:43:04.407Z,35.07
2018-09-28T07:45:33.071Z,34.80
2018-09-28T07:48:01.814Z,34.80
2018-09-28T07:50:30.451Z,36.40
2018-09-28T07:52:59.154Z,36.77
2018-09-28T07:55:27.825Z,33.67
2018-09-28T07:57:56.521Z,32.77
2018-09-28T08:00:25.177Z,31.23
2018-09-28T08:02:53.858Z,32.73
2018-09-28T08:05:22.573Z,30.23
2018-09-28T08:07:51.267Z,33.20
2018-09-28T08:10:19.939Z,33.70
2018-09-28T08:12:48.594Z,34.53
2018-09-28T08:15:17.286Z,32.87
2018-09-28T08:17:46.209Z,31.70
2018-09-28T08:20:14.817Z,28.87
2018-09-28T08:22:43.501Z,28.40
2018-09-28T08:25:12.260Z,28.43
2018-09-28T08:27:40.974Z,27.53
2018-09-28T08:30:09.698Z,28.50
2018-09-28T08:32:38.358Z,29.23
2018-09-28T08:35:07.010Z,30.40
2018-09-28T08:37:35.719Z,24.60
2018-09-28T08:40:04.466Z,22.37
2018-09-28T08:42:33.259Z,20.20
2018-09-28T08:45:01.946Z,18.77
2018-09-28T08:47:30.733Z,20.90
2018-09-28T08:49:59.371Z,16.60
2018-09-28T08:52:28.035Z,16.80
2018-09-28T08:54:56.699Z,12.67
2018-09-28T08:57:26.315Z,10.17
2018-09-28T08:59:55.004Z,10.90
2018-09-28T09:02:23.653Z,11.63
2018-09-28T09:04:52.383Z,8.70
2018-09-28T09:07:21.074Z,9.40
2018-09-28T09:09:49.753Z,8.47
2018-09-28T09:12:18.429Z,7.27
2018-09-28T09:14:47.091Z,7.13
2018-09-28T09:17:15.863Z,5.97
2018-09-28T09:19:44.610Z,4.47
2018-09-28T09:22:13.269Z,3.93
2018-09-28T09:24:41.926Z,3.30
2018-09-28T09:27:10.615Z,3.93
2018-09-28T09:29:39.263Z,4.17
2018-09-28T09:32:07.911Z,5.70
2018-09-28T09:34:36.582Z,2.50
2018-09-28T09:37:05.345Z,2.70
2018-09-28T09:39:34.018Z,2.60
2018-09-28T09:42:02.701Z,2.27
2018-09-28T09:44:31.378Z,2.50
2018-09-28T09:47:00.061Z,2.40
2018-09-28T09:49:28.759Z,2.77
2018-09-28T09:51:57.417Z,2.70
2018-09-28T09:54:26.077Z,2.83
2018-09-28T09:56:54.739Z,2.43
2018-09-28T09:59:23.404Z,3.20
2018-09-28T10:01:57.645Z,2.27
2018-09-28T10:04:26.326Z,2.50
2018-09-28T10:06:55.007Z,2.30
2018-09-28T10:09:23.670Z,2.23
2018-09-28T10:11:52.317Z,2.37
2018-09-28T10:14:20.984Z,2.77
2018-09-28T10:16:49.798Z,2.70
2018-09-28T10:19:18.523Z,2.80
2018-09-28T10:21:47.119Z,4.43
2018-09-28T10:24:15.788Z,2.20
2018-09-28T10:26:44.458Z,2.57
2018-09-28T10:29:13.148Z,2.00
2018-09-28T10:31:41.819Z,2.60
2018-09-28T10:34:10.555Z,2.80
2018-09-28T10:36:39.167Z,2.47
2018-09-28T10:39:08.123Z,2.77
2018-09-28T10:41:36.937Z,2.83
2018-09-28T10:44:05.945Z,3.57
2018-09-28T10:46:34.765Z,2.00
2018-09-28T10:49:03.372Z,2.33
2018-09-28T10:51:32.021Z,2.17
2018-09-28T10:54:00.690Z,2.00
2018-09-28T10:56:29.360Z,2.40
2018-09-28T10:58:58.180Z,2.20
2018-09-28T11:01:26.714Z,2.40
2018-09-28T11:03:55.373Z,2.10
2018-09-28T11:06:24.039Z,2.43
2018-09-28T11:08:52.764Z,2.10
2018-09-28T11:11:21.470Z,2.10
2018-09-28T11:13:50.139Z,1.50
2018-09-28T11:16:18.840Z,2.07
2018-09-28T11:18:47.535Z,1.77
2018-09-28T11:21:16.244Z,3.10
2018-09-28T11:23:45.013Z,2.00
2018-09-28T11:26:13.757Z,1.80
2018-09-28T11:28:42.470Z,2.37
2018-09-28T11:31:11.934Z,2.00
2018-09-28T11:33:40.696Z,2.63
2018-09-28T11:36:09.333Z,1.97
2018-09-28T11:38:37.966Z,1.90
2018-09-28T11:41:08.087Z,1.70
2018-09-28T11:43:36.833Z,1.70
2018-09-28T11:46:05.544Z,2.30
2018-09-28T11:48:34.188Z,1.93
2018-09-28T11:51:02.881Z,1.90
2018-09-28T11:53:31.551Z,2.00
2018-09-28T11:56:00.199Z,2.00
2018-09-28T11:58:29.138Z,2.00
2018-09-28T12:00:57.793Z,2.07
2018-09-28T12:03:26.518Z,1.90
2018-09-28T12:05:55.101Z,2.17
2018-09-28T12:08:23.770Z,1.73
2018-09-28T12:10:52.438Z,2.13
2018-09-28T12:13:21.094Z,1.70
2018-09-28T12:15:49.787Z,1.90
2018-09-28T12:18:18.478Z,1.70
2018-09-28T12:20:47.093Z,1.80
2018-09-28T12:23:15.767Z,1.93
2018-09-28T12:25:44.431Z,2.10
2018-09-28T12:28:13.123Z,1.93
2018-09-28T12:30:41.825Z,1.80
2018-09-28T12:33:10.591Z,1.80
2018-09-28T12:35:39.200Z,1.70
2018-09-28T12:38:07.902Z,1.83
2018-09-28T12:40:36.670Z,1.87
2018-09-28T12:43:05.330Z,1.40
2018-09-28T12:45:34.083Z,2.00
2018-09-28T12:48:02.720Z,1.90
2018-09-28T12:50:31.384Z,1.80
2018-09-28T12:53:00.011Z,2.57
2018-09-28T12:55:28.666Z,2.47
2018-09-28T12:57:57.325Z,2.00
2018-09-28T13:00:26.104Z,1.97
2018-09-28T13:02:54.646Z,1.80
2018-09-28T13:05:23.321Z,1.87
2018-09-28T13:07:51.985Z,1.90
2018-09-28T13:10:20.640Z,2.20
2018-09-28T13:12:49.348Z,2.20
2018-09-28T13:15:17.973Z,2.80
2018-09-28T13:17:46.595Z,1.77
2018-09-28T13:20:15.277Z,1.90
2018-09-28T13:22:43.918Z,1.87
2018-09-28T13:25:12.579Z,1.90
2018-09-28T13:27:41.961Z,2.03
2018-09-28T13:30:10.694Z,2.00
2018-09-28T13:32:39.340Z,2.03
2018-09-28T13:35:07.970Z,1.80
2018-09-28T13:37:36.628Z,1.80
2018-09-28T13:40:05.288Z,2.10
2018-09-28T13:42:34.014Z,1.40
2018-09-28T13:45:02.705Z,1.20
2018-09-28T13:47:31.419Z,1.50
2018-09-28T13:50:00.067Z,1.40
2018-09-28T13:52:28.769Z,1.40
2018-09-28T13:54:57.391Z,1.50
2018-09-28T13:57:26.063Z,1.73
2018-09-28T13:59:54.747Z,1.70
2018-09-28T14:02:23.460Z,1.67
2018-09-28T14:04:52.072Z,1.53
2018-09-28T14:07:20.720Z,1.67
2018-09-28T14:09:49.407Z,2.00
2018-09-28T14:12:18.123Z,2.03
2018-09-28T14:14:46.868Z,1.83
2018-09-28T14:17:15.527Z,1.80
2018-09-28T14:19:44.218Z,1.53
2018-09-28T14:22:13.226Z,1.30
2018-09-28T14:24:41.931Z,1.43
2018-09-28T14:27:10.633Z,1.40
2018-09-28T14:29:39.378Z,1.60
2018-09-28T14:32:08.118Z,1.20
2018-09-28T14:34:36.928Z,1.70
2018-09-28T14:37:05.579Z,1.30
2018-09-28T14:39:34.222Z,1.33
2018-09-28T14:42:02.972Z,1.23
2018-09-28T14:44:31.542Z,1.00
2018-09-28T14:47:00.335Z,1.40
2018-09-28T14:49:28.994Z,1.03
2018-09-28T14:51:57.641Z,1.37
2018-09-28T14:54:26.338Z,1.10
2018-09-28T14:56:54.983Z,1.00
2018-09-28T14:59:23.759Z,1.53
2018-09-28T15:01:52.402Z,1.30
2018-09-28T15:04:21.191Z,1.40
2018-09-28T15:06:49.978Z,1.87
2018-09-28T15:09:18.552Z,2.00
2018-09-28T15:11:47.304Z,1.53
2018-09-28T15:14:15.999Z,1.70
2018-09-28T15:16:44.725Z,1.30
2018-09-28T15:19:13.481Z,1.30
2018-09-28T15:21:42.144Z,1.57
2018-09-28T15:24:10.829Z,1.50
2018-09-28T15:26:39.512Z,1.27
2018-09-28T15:29:08.243Z,1.60
2018-09-28T15:31:36.975Z,1.67
2018-09-28T15:34:05.694Z,1.10
2018-09-28T15:36:34.517Z,1.63
2018-09-28T15:39:04.498Z,1.43
2018-09-28T15:41:33.245Z,1.40
2018-09-28T15:44:01.904Z,1.50
2018-09-28T15:46:30.546Z,1.20
2018-09-28T15:48:59.285Z,1.30
2018-09-28T15:51:27.975Z,1.10
2018-09-28T15:53:56.733Z,1.80
2018-09-28T15:56:25.383Z,1.43
2018-09-28T15:58:54.026Z,1.37
2018-09-28T16:01:22.715Z,1.10
2018-09-28T16:03:51.353Z,1.30
2018-09-28T16:06:19.993Z,1.40
2018-09-28T16:08:48.637Z,1.50
2018-09-28T16:11:17.365Z,1.30
2018-09-28T16:13:45.999Z,1.10
2018-09-28T16:16:14.691Z,1.67
2018-09-28T16:18:43.354Z,1.20
2018-09-28T16:21:11.986Z,1.40
2018-09-28T16:23:40.634Z,1.60
2018-09-28T16:26:09.362Z,1.20
2018-09-28T16:28:38.026Z,1.50
2018-09-28T16:31:06.739Z,1.30
2018-09-28T16:33:35.675Z,2.37
2018-09-28T16:36:04.355Z,1.40
2018-09-28T16:38:32.968Z,1.70
2018-09-28T16:41:01.641Z,1.70
2018-09-28T16:43:30.355Z,1.60
2018-09-28T16:45:59.050Z,1.90
2018-09-28T16:48:27.754Z,2.00
2018-09-28T16:50:56.406Z,2.10
2018-09-28T16:53:25.099Z,3.50
2018-09-28T16:55:54.073Z,1.83
2018-09-28T16:58:22.743Z,1.53
2018-09-28T17:00:51.473Z,1.30
2018-09-28T17:03:20.170Z,1.40
2018-09-28T17:05:48.800Z,2.13
2018-09-28T17:08:17.462Z,3.37
2018-09-28T17:10:46.125Z,2.90
2018-09-28T17:13:14.785Z,3.90
2018-09-28T17:15:43.457Z,5.70
2018-09-28T17:18:12.153Z,3.63
2018-09-28T17:20:40.935Z,3.93
2018-09-28T17:23:09.630Z,4.13
2018-09-28T17:25:38.313Z,3.10
2018-09-28T17:28:07.142Z,3.40
2018-09-28T17:30:35.899Z,3.77
2018-09-28T17:33:04.554Z,3.67
2018-09-28T17:35:33.246Z,2.97
2018-09-28T17:38:01.926Z,5.07
2018-09-28T17:40:30.627Z,4.60
2018-09-28T17:42:59.278Z,2.73
2018-09-28T17:45:27.934Z,2.40
2018-09-28T17:47:56.682Z,3.67
2018-09-28T17:50:25.347Z,2.87
2018-09-28T17:52:54.019Z,3.53
2018-09-28T17:55:22.686Z,4.20
2018-09-28T17:57:51.349Z,3.93
2018-09-28T18:00:20.006Z,3.40
2018-09-28T18:02:48.669Z,2.63
2018-09-28T18:05:17.375Z,2.30
2018-09-28T18:07:46.045Z,1.87
2018-09-28T18:10:14.703Z,1.90
2018-09-28T18:12:43.368Z,2.73
2018-09-28T18:15:12.166Z,6.43
2018-09-28T18:17:40.939Z,2.70
2018-09-28T18:20:09.652Z,3.47
2018-09-28T18:22:38.258Z,5.90
2018-09-28T18:25:06.918Z,3.90
2018-09-28T18:27:35.578Z,2.20
2018-09-28T18:30:04.639Z,2.50
2018-09-28T18:32:33.314Z,1.73
2018-09-28T18:35:02.025Z,2.70
2018-09-28T18:37:30.795Z,2.63
2018-09-28T18:39:59.458Z,2.37
2018-09-28T18:42:28.126Z,2.80
2018-09-28T18:44:56.798Z,2.00
2018-09-28T18:47:25.559Z,2.60
2018-09-28T18:49:54.182Z,1.90
2018-09-28T18:52:22.856Z,2.30
2018-09-28T18:54:51.543Z,2.67
2018-09-28T18:57:20.261Z,1.93
2018-09-28T18:59:49.037Z,2.23
2018-09-28T19:02:17.703Z,2.40
2018-09-28T19:04:46.350Z,1.97
2018-09-28T19:07:15.141Z,2.60
2018-09-28T19:09:43.895Z,2.57
2018-09-28T19:12:12.615Z,2.20
2018-09-28T19:14:41.231Z,2.07
2018-09-28T19:17:09.903Z,2.43
2018-09-28T19:19:38.551Z,2.07
2018-09-28T19:22:07.334Z,2.43
2018-09-28T19:24:35.998Z,3.00
2018-09-28T19:27:04.710Z,3.70
2018-09-28T19:29:33.391Z,2.77
2018-09-28T19:32:02.060Z,2.60
2018-09-28T19:34:30.700Z,3.20
2018-09-28T19:36:59.363Z,3.30
2018-09-28T19:39:28.437Z,3.73
2018-09-28T19:41:57.127Z,4.90
2018-09-28T19:44:25.791Z,4.33
2018-09-28T19:46:54.449Z,3.70
2018-09-28T19:49:23.206Z,3.73
2018-09-28T19:51:51.861Z,3.77
2018-09-28T19:54:20.526Z,3.50
2018-09-28T19:56:49.187Z,4.07
2018-09-28T19:59:17.849Z,4.10
2018-09-28T20:01:46.583Z,3.33
2018-09-28T20:04:15.485Z,2.67
2018-09-28T20:06:44.138Z,2.50
2018-09-28T20:09:12.883Z,1.87
2018-09-28T20:11:42.030Z,1.93
2018-09-28T20:14:10.768Z,1.57
2018-09-28T20:16:39.936Z,2.13
2018-09-28T20:19:11.171Z,2.47
2018-09-28T20:21:40.301Z,2.20
2018-09-28T20:24:09.053Z,2.63
2018-09-28T20:26:37.609Z,2.10
2018-09-28T20:29:06.986Z,2.30
2018-09-28T20:31:35.944Z,2.30
2018-09-28T20:34:05.030Z,2.63
2018-09-28T20:36:33.675Z,1.63
2018-09-28T20:39:02.350Z,1.80
2018-09-28T20:41:31.301Z,2.03
2018-09-28T20:43:59.946Z,2.03
2018-09-28T20:46:28.592Z,1.93
2018-09-28T20:48:57.304Z,1.60
2018-09-28T20:51:25.947Z,1.70
2018-09-28T20:53:54.707Z,1.82
2018-09-28T20:56:23.709Z,1.80
2018-09-28T20:58:52.610Z,1.82
2018-09-28T21:01:21.250Z,2.30
2018-09-28T21:03:50.153Z,1.80
2018-09-28T21:06:19.095Z,1.65
2018-09-28T21:08:48.210Z,1.67
2018-09-28T21:11:16.853Z,1.40
2018-09-28T21:13:45.622Z,1.70
2018-09-28T21:16:14.442Z,1.47
2018-09-28T21:18:43.077Z,1.50
2018-09-28T21:21:11.743Z,1.70
2018-09-28T21:23:40.480Z,1.67
2018-09-28T21:26:09.080Z,1.50
2018-09-28T21:28:37.739Z,1.83
2018-09-28T21:31:07.145Z,1.60
2018-09-28T21:33:35.998Z,1.70
2018-09-28T21:36:04.906Z,1.87
2018-09-28T21:38:33.567Z,1.50
2018-09-28T21:41:02.215Z,1.62
2018-09-28T21:43:30.886Z,1.47
2018-09-28T21:45:59.525Z,1.65
2018-09-28T21:48:28.181Z,1.50
2018-09-28T21:50:56.838Z,1.90
2018-09-28T21:53:25.504Z,1.60
2018-09-28T21:55:54.184Z,1.60
2018-09-28T21:58:22.838Z,1.80
2018-09-28T22:00:56.457Z,1.93
2018-09-28T22:03:25.353Z,2.00
2018-09-28T22:05:54.047Z,1.82
2018-09-28T22:08:22.702Z,2.12
2018-09-28T22:10:51.459Z,2.00
2018-09-28T22:13:20.087Z,2.08
2018-09-28T22:15:48.755Z,1.70
2018-09-28T22:18:17.410Z,1.02
2018-09-28T22:20:46.067Z,2.37
2018-09-28T22:23:16.164Z,1.67
2018-09-28T22:25:44.823Z,1.98
2018-09-28T22:28:13.490Z,1.92
2018-09-28T22:30:42.164Z,1.65
2018-09-28T22:33:10.814Z,2.17
2018-09-28T22:35:39.461Z,1.85
2018-09-28T22:38:08.102Z,1.87
2018-09-28T22:40:36.780Z,1.87
2018-09-28T22:43:05.641Z,2.00
2018-09-28T22:45:34.345Z,2.12
2018-09-28T22:48:02.994Z,2.02
2018-09-28T22:50:31.653Z,1.62
2018-09-28T22:53:00.309Z,1.60
2018-09-28T22:55:28.961Z,2.08
2018-09-28T22:57:57.610Z,1.87
2018-09-28T23:00:26.271Z,1.65
2018-09-28T23:02:54.930Z,1.82
2018-09-28T23:05:23.585Z,1.77
2018-09-28T23:07:52.274Z,1.60
2018-09-28T23:10:20.943Z,1.90
2018-09-28T23:12:49.607Z,1.90
2018-09-28T23:15:18.267Z,2.05
2018-09-28T23:17:46.914Z,2.50
2018-09-28T23:20:15.553Z,1.80
2018-09-28T23:22:44.207Z,1.85
2018-09-28T23:25:12.930Z,1.80
2018-09-28T23:27:41.550Z,1.90
2018-09-28T23:30:10.219Z,2.05
2018-09-28T23:32:38.853Z,1.80
2018-09-28T23:35:07.514Z,2.62
2018-09-28T23:37:36.194Z,1.90
2018-09-28T23:40:05.194Z,2.10
2018-09-28T23:42:33.842Z,2.00
2018-09-28T23:45:02.513Z,2.02
2018-09-28T23:47:31.181Z,1.98
2018-09-28T23:49:59.822Z,2.50
2018-09-28T23:52:28.478Z,2.12
2018-09-28T23:54:57.139Z,2.35
2018-09-28T23:57:25.788Z,2.27
2018-09-28T23:59:54.446Z,2.70
